Time;durP1;ratioP1;P1;durP2;ratioP2;P2;SDS_P1;SDS_P2;PMS_P1;PMS_P2;Temp;Humidity;BMP_temperature;BMP_pressure;BME280_temperature;BME280_humidity;BME280_pressure;Samples;Min_cycle;Max_cycle;Signal;HPM_P1;HPM_P2
2022/06/25 00:01:31;;;;;;;;;;;;;;;;;;4938070;28;20874;-58
2022/06/25 00:03:56;;;;;;;;;;;;;;;;;;4939443;28;19984;-58
2022/06/25 00:06:24;;;;;;;;;;;;;;;;;;4955669;28;19921;-58
2022/06/25 00:08:50;;;;;;;;;;;;;;;;;;4951684;28;19932;-58
2022/06/25 00:14:01;;;;;;;;;;;;;;;;;;4955584;28;21986;-58
2022/06/25 00:16:29;;;;;;;;;;;;;;;;;;4952490;28;19922;-58
2022/06/25 00:18:54;;;;;;;;;;;;;;;;;;4956312;28;19928;-58
2022/06/25 00:21:23;;;;;;;;;;;;;;;;;;4954987;28;20948;-58
2022/06/25 00:23:48;;;;;;;;;;;;;;;;;;4954303;28;20440;-58
2022/06/25 00:26:18;;;;;;;;;;;;;;;;;;4955155;28;19918;-58
2022/06/25 00:28:48;;;;;;;;;;;;;;;;;;4960537;28;19917;-58
2022/06/25 00:31:13;;;;;;;;;;;;;;;;;;4954296;28;19922;-58
2022/06/25 00:33:41;;;;;;;;;;;;;;;;;;4959961;28;19922;-58
2022/06/25 00:36:09;;;;;;;;;;;;;;;;;;4939866;28;19929;-58
2022/06/25 00:38:36;;;;;;;;;;;;;;;;;;4953793;28;19922;-58
2022/06/25 00:41:03;;;;;;;;;;;;;;;;;;4956176;28;19922;-58
2022/06/25 00:43:31;;;;;;;;;;;;;;;;;;4953704;28;19934;-57
2022/06/25 00:45:56;;;;;;;;;;;;;;;;;;4955308;28;21358;-57
2022/06/25 00:48:24;;;;;;;;;;;;;;;;;;4957948;28;19921;-58
2022/06/25 00:50:51;;;;;;;;;;;;;;;;;;4946844;28;20004;-58
2022/06/25 00:53:17;;;;;;;;;;;;;;;;;;4961023;28;20616;-58
2022/06/25 00:55:44;;;;;;;;;;;;;;;;;;4961150;28;19918;-57
2022/06/25 00:58:15;;;;;;;;;;;;;;;;;;4953590;28;19922;-58
2022/06/25 01:00:43;;;;;;;;;;;;;;;;;;4950730;28;20712;-59
2022/06/25 01:03:13;;;;;;;;;;;;;;;;;;4966932;28;19956;-58
2022/06/25 01:05:41;;;;;;;;;;;;;;;;;;4938284;28;19926;-57
2022/06/25 01:08:08;;;;;;;;;;;;;;;;;;4952601;28;19921;-58
2022/06/25 01:10:38;;;;;;;;;;;;;;;;;;4957370;28;19925;-58
2022/06/25 01:13:08;;;;;;;;;;;;;;;;;;4949517;28;19918;-59
2022/06/25 01:15:35;;;;;;;;;;;;;;;;;;4954566;28;19918;-59
2022/06/25 01:18:03;;;;;;;;;;;;;;;;;;4967814;28;20053;-59
2022/06/25 01:20:31;;;;;;;;;;;;;;;;;;4964452;28;19922;-58
2022/06/25 01:22:59;;;;;;;;;;;;;;;;;;4965932;28;19957;-59
2022/06/25 01:25:27;;;;;;;;;;;;;;;;;;4966358;28;20032;-59
2022/06/25 01:27:55;;;;;;;;;;;;;;;;;;4951082;28;19921;-58
2022/06/25 01:30:20;;;;;;;;;;;;;;;;;;4949659;28;19918;-58
2022/06/25 01:32:48;;;;;;;;;;;;;;;;;;4964835;28;20048;-58
2022/06/25 01:35:18;;;;;;;;;;;;;;;;;;4971500;28;19917;-57
2022/06/25 01:37:45;;;;;;;;;;;;;;;;;;4969295;28;19925;-58
2022/06/25 01:40:10;;;;;;;;;;;;;;;;;;4960121;28;20584;-57
2022/06/25 01:45:22;;;;;;;;;;;;;;;;;;4968558;28;20004;-57
2022/06/25 01:47:48;;;;;;;;;;;;;;;;;;4972109;28;19925;-56
2022/06/25 01:50:13;;;;;;;;;;;;;;;;;;4975803;28;20759;-58
2022/06/25 01:52:43;;;;;;;;;;;;;;;;;;4955887;28;19922;-58
2022/06/25 01:55:10;;;;;;;;;;;;;;;;;;4972972;28;20800;-57
2022/06/25 01:57:38;;;;;;;;;;;;;;;;;;4974502;28;20380;-58
2022/06/25 02:00:05;;;;;;;;;;;;;;;;;;4968278;28;19922;-58
2022/06/25 02:02:31;;;;;;;;;;;;;;;;;;4966528;28;20508;-58
2022/06/25 02:04:59;;;;;;;;;;;;;;;;;;4970542;28;19936;-58
2022/06/25 02:10:41;;;;;;;;;;;;;;;;;;4970295;28;20080;-58
2022/06/25 02:13:07;;;;;;;;;;;;;;;;;;4972220;28;19945;-59
2022/06/25 02:15:33;;;;;;;;;;;;;;;;;;4970222;28;19929;-58
2022/06/25 02:18:00;;;;;;;;;;;;;;;;;;4967207;28;19933;-58
2022/06/25 02:20:26;;;;;;;;;;;;;;;;;;4971499;28;19922;-58
2022/06/25 02:22:53;;;;;;;;;;;;;;;;;;4957108;28;19922;-57
2022/06/25 02:25:19;;;;;;;;;;;;;;;;;;4962614;28;19929;-58
2022/06/25 02:27:44;;;;;;;;;;;;;;;;;;4970910;28;20688;-58
2022/06/25 02:30:12;;;;;;;;;;;;;;;;;;4953005;28;19922;-58
2022/06/25 02:32:39;;;;;;;;;;;;;;;;;;4972241;28;19927;-59
2022/06/25 02:35:04;;;;;;;;;;;;;;;;;;4969149;28;19997;-58
2022/06/25 02:37:29;;;;;;;;;;;;;;;;;;4972102;28;20022;-58
2022/06/25 02:39:55;;;;;;;;;;;;;;;;;;4971162;28;19971;-58
2022/06/25 02:42:20;;;;;;;;;;;;;;;;;;4970547;28;20047;-58
2022/06/25 02:44:46;;;;;;;;;;;;;;;;;;4973502;28;20016;-58
2022/06/25 02:47:11;;;;;;;;;;;;;;;;;;4968329;28;19963;-57
2022/06/25 02:49:39;;;;;;;;;;;;;;;;;;4971325;28;19921;-58
2022/06/25 02:52:04;;;;;;;;;;;;;;;;;;4973327;28;19928;-58
2022/06/25 02:54:29;;;;;;;;;;;;;;;;;;4968434;28;19922;-58
2022/06/25 02:59:42;;;;;;;;;;;;;;;;;;4969077;28;21761;-58
2022/06/25 03:02:07;;;;;;;;;;;;;;;;;;4970162;28;19960;-58
2022/06/25 03:04:33;;;;;;;;;;;;;;;;;;4969200;28;20063;-59
2022/06/25 03:06:58;;;;;;;;;;;;;;;;;;4970249;28;19932;-58
2022/06/25 03:09:26;;;;;;;;;;;;;;;;;;4969939;28;20632;-58
2022/06/25 03:11:51;;;;;;;;;;;;;;;;;;4969454;28;19918;-59
2022/06/25 03:14:19;;;;;;;;;;;;;;;;;;4970856;28;19924;-58
2022/06/25 03:16:44;;;;;;;;;;;;;;;;;;4971994;28;20095;-58
2022/06/25 03:19:10;;;;;;;;;;;;;;;;;;4971840;28;20944;-58
2022/06/25 03:21:35;;;;;;;;;;;;;;;;;;4951917;28;19923;-59
2022/06/25 03:24:00;;;;;;;;;;;;;;;;;;4969941;28;19922;-58
2022/06/25 03:26:26;;;;;;;;;;;;;;;;;;4971695;28;19937;-59
2022/06/25 03:28:51;;;;;;;;;;;;;;;;;;4968510;28;19921;-58
2022/06/25 03:31:16;;;;;;;;;;;;;;;;;;4971214;28;21461;-58
2022/06/25 03:33:41;;;;;;;;;;;;;;;;;;4970693;28;20001;-58
2022/06/25 03:36:07;;;;;;;;;;;;;;;;;;4966469;28;19922;-57
2022/06/25 03:38:37;;;;;;;;;;;;;;;;;;4969714;28;19922;-57
2022/06/25 03:43:47;;;;;;;;;;;;;;;;;;4968244;28;20083;-58
2022/06/25 03:46:12;;;;;;;;;;;;;;;;;;4966760;28;19917;-57
2022/06/25 03:48:38;;;;;;;;;;;;;;;;;;4961892;28;22158;-58
2022/06/25 03:51:04;;;;;;;;;;;;;;;;;;4960178;28;19921;-58
2022/06/25 03:53:29;;;;;;;;;;;;;;;;;;4956495;28;21035;-58
2022/06/25 03:55:55;;;;;;;;;;;;;;;;;;4965055;28;19922;-58
2022/06/25 03:58:20;;;;;;;;;;;;;;;;;;4954613;28;19921;-58
2022/06/25 04:00:45;;;;;;;;;;;;;;;;;;4958264;28;19979;-59
2022/06/25 04:03:13;;;;;;;;;;;;;;;;;;4957191;28;19929;-59
2022/06/25 04:05:38;;;;;;;;;;;;;;;;;;4958692;28;19921;-59
2022/06/25 04:08:04;;;;;;;;;;;;;;;;;;4958256;28;19929;-59
2022/06/25 04:10:29;;;;;;;;;;;;;;;;;;4954746;28;20103;-58
2022/06/25 04:12:55;;;;;;;;;;;;;;;;;;4954787;28;19922;-59
2022/06/25 04:15:20;;;;;;;;;;;;;;;;;;4959301;28;21807;-59
2022/06/25 04:17:50;;;;;;;;;;;;;;;;;;4963088;28;19921;-59
2022/06/25 04:20:15;;;;;;;;;;;;;;;;;;4955086;28;21022;-59
2022/06/25 04:22:43;;;;;;;;;;;;;;;;;;4957539;28;20748;-58
2022/06/25 04:25:08;;;;;;;;;;;;;;;;;;4964818;28;19928;-59
2022/06/25 04:30:18;;;;;;;;;;;;;;;;;;4965888;28;20040;-60
2022/06/25 04:32:43;;;;;;;;;;;;;;;;;;4965757;28;19926;-59
2022/06/25 04:35:12;;;;;;;;;;;;;;;;;;4965590;28;19922;-61
2022/06/25 04:37:37;;;;;;;;;;;;;;;;;;4969967;28;19996;-60
2022/06/25 04:40:05;;;;;;;;;;;;;;;;;;4976344;28;19921;-60
2022/06/25 04:42:30;;;;;;;;;;;;;;;;;;4971187;28;19921;-61
2022/06/25 04:44:58;;;;;;;;;;;;;;;;;;4970773;28;19929;-59
2022/06/25 04:47:23;;;;;;;;;;;;;;;;;;4964450;28;19971;-59
2022/06/25 04:49:51;;;;;;;;;;;;;;;;;;4967859;28;19921;-60
2022/06/25 04:52:19;;;;;;;;;;;;;;;;;;4975755;28;19921;-59
2022/06/25 04:54:44;;;;;;;;;;;;;;;;;;4974753;28;19981;-61
2022/06/25 04:57:09;;;;;;;;;;;;;;;;;;4967777;28;20420;-60
2022/06/25 04:59:35;;;;;;;;;;;;;;;;;;4967943;28;20468;-60
2022/06/25 05:02:03;;;;;;;;;;;;;;;;;;4965297;28;19995;-62
2022/06/25 05:04:31;;;;;;;;;;;;;;;;;;4951218;28;19929;-60
2022/06/25 05:06:56;;;;;;;;;;;;;;;;;;4962963;28;20672;-61
2022/06/25 05:09:21;;;;;;;;;;;;;;;;;;4967762;28;19917;-61
2022/06/25 05:11:47;;;;;;;;;;;;;;;;;;4974112;28;19922;-61
2022/06/25 05:14:12;;;;;;;;;;;;;;;;;;4975498;28;19963;-61
2022/06/25 05:16:38;;;;;;;;;;;;;;;;;;4971962;28;19922;-62
2022/06/25 05:19:06;;;;;;;;;;;;;;;;;;4960730;28;19988;-62
2022/06/25 05:21:31;;;;;;;;;;;;;;;;;;4965531;28;19928;-62
2022/06/25 05:24:01;;;;;;;;;;;;;;;;;;4967098;28;21709;-62
2022/06/25 05:26:29;;;;;;;;;;;;;;;;;;4973316;28;19926;-63
2022/06/25 05:28:55;;;;;;;;;;;;;;;;;;4968736;28;19917;-62
2022/06/25 05:31:20;;;;;;;;;;;;;;;;;;4955431;28;21144;-62
2022/06/25 05:33:45;;;;;;;;;;;;;;;;;;4970614;28;20641;-63
2022/06/25 05:36:10;;;;;;;;;;;;;;;;;;4972086;28;20385;-63
2022/06/25 05:38:39;;;;;;;;;;;;;;;;;;4972339;28;19955;-63
2022/06/25 05:41:08;;;;;;;;;;;;;;;;;;4972752;28;20373;-63
2022/06/25 05:43:33;;;;;;;;;;;;;;;;;;4972489;28;19930;-64
2022/06/25 05:46:01;;;;;;;;;;;;;;;;;;4971284;28;19921;-62
2022/06/25 05:48:29;;;;;;;;;;;;;;;;;;4969226;28;19922;-63
2022/06/25 05:50:54;;;;;;;;;;;;;;;;;;4969288;28;19964;-63
2022/06/25 05:53:19;;;;;;;;;;;;;;;;;;4968468;28;19918;-62
2022/06/25 05:55:47;;;;;;;;;;;;;;;;;;4972258;28;20547;-63
2022/06/25 05:58:12;;;;;;;;;;;;;;;;;;4971120;28;19929;-62
2022/06/25 06:00:40;;;;;;;;;;;;;;;;;;4973950;28;19921;-62
2022/06/25 06:03:11;;;;;;;;;;;;;;;;;;4971303;28;19961;-61
2022/06/25 06:05:38;;;;;;;;;;;;;;;;;;4970585;28;20015;-61
2022/06/25 06:08:06;;;;;;;;;;;;;;;;;;4959204;28;19917;-61
2022/06/25 06:10:34;;;;;;;;;;;;;;;;;;4967758;28;19922;-62
2022/06/25 06:12:59;;;;;;;;;;;;;;;;;;4967965;28;19961;-62
2022/06/25 06:15:24;;;;;;;;;;;;;;;;;;4969366;28;19925;-62
2022/06/25 06:17:50;;;;;;;;;;;;;;;;;;4971515;28;19921;-61
2022/06/25 06:20:17;;;;;;;;;;;;;;;;;;4956878;28;19918;-61
2022/06/25 06:22:43;;;;;;;;;;;;;;;;;;4953933;28;19971;-61
2022/06/25 06:25:08;;;;;;;;;;;;;;;;;;4970858;28;19925;-62
2022/06/25 06:27:34;;;;;;;;;;;;;;;;;;4969297;28;20201;-61
2022/06/25 06:29:59;;;;;;;;;;;;;;;;;;4969236;28;19921;-62
2022/06/25 06:32:27;;;;;;;;;;;;;;;;;;4971036;28;19921;-61
2022/06/25 06:34:55;;;;;;;;;;;;;;;;;;4976592;28;19922;-61
2022/06/25 06:37:21;;;;;;;;;;;;;;;;;;4976048;28;20040;-60
2022/06/25 06:39:46;;;;;;;;;;;;;;;;;;4974475;28;19922;-61
2022/06/25 06:42:13;;;;;;;;;;;;;;;;;;4970088;28;19931;-62
2022/06/25 06:44:38;;;;;;;;;;;;;;;;;;4976038;28;19981;-61
2022/06/25 06:47:06;;;;;;;;;;;;;;;;;;4968792;28;19933;-61
2022/06/25 06:49:34;;;;;;;;;;;;;;;;;;4950718;28;20012;-61
2022/06/25 06:52:02;;;;;;;;;;;;;;;;;;4975090;28;19918;-60
2022/06/25 06:54:30;;;;;;;;;;;;;;;;;;4973036;28;20091;-61
2022/06/25 06:56:57;;;;;;;;;;;;;;;;;;4974713;28;19940;-60
2022/06/25 06:59:22;;;;;;;;;;;;;;;;;;4972619;28;20820;-60
2022/06/25 07:01:48;;;;;;;;;;;;;;;;;;4969991;28;19922;-60
2022/06/25 07:04:13;;;;;;;;;;;;;;;;;;4971472;28;19921;-61
2022/06/25 07:06:39;;;;;;;;;;;;;;;;;;4969823;28;20676;-61
2022/06/25 07:09:04;;;;;;;;;;;;;;;;;;4973649;28;19922;-60
2022/06/25 07:11:30;;;;;;;;;;;;;;;;;;4968039;28;19922;-60
2022/06/25 07:13:55;;;;;;;;;;;;;;;;;;4971819;28;19921;-61
2022/06/25 07:16:21;;;;;;;;;;;;;;;;;;4964523;28;19925;-60
2022/06/25 07:18:46;;;;;;;;;;;;;;;;;;4972182;28;19917;-60
2022/06/25 07:21:11;;;;;;;;;;;;;;;;;;4985650;28;19998;-60
2022/06/25 07:23:39;;;;;;;;;;;;;;;;;;4972297;28;22161;-61
2022/06/25 07:26:07;;;;;;;;;;;;;;;;;;4974887;28;19932;-59
2022/06/25 07:28:32;;;;;;;;;;;;;;;;;;4969946;28;19921;-59
2022/06/25 07:31:00;;;;;;;;;;;;;;;;;;4977010;28;19933;-61
2022/06/25 07:33:25;;;;;;;;;;;;;;;;;;4965876;28;19930;-59
2022/06/25 07:35:51;;;;;;;;;;;;;;;;;;4967663;28;19929;-59
2022/06/25 07:38:19;;;;;;;;;;;;;;;;;;4972354;28;22091;-60
2022/06/25 07:40:44;;;;;;;;;;;;;;;;;;4970153;28;19957;-59
2022/06/25 07:43:09;;;;;;;;;;;;;;;;;;4967285;28;20460;-59
2022/06/25 07:45:35;;;;;;;;;;;;;;;;;;4964540;28;19926;-59
2022/06/25 07:48:03;;;;;;;;;;;;;;;;;;4970852;28;19957;-60
2022/06/25 07:53:14;;;;;;;;;;;;;;;;;;4974724;28;19929;-60
2022/06/25 07:55:40;;;;;;;;;;;;;;;;;;4970059;28;19995;-60
2022/06/25 07:58:06;;;;;;;;;;;;;;;;;;4968145;28;20371;-61
2022/06/25 08:00:31;;;;;;;;;;;;;;;;;;4970439;28;19922;-61
2022/06/25 08:02:57;;;;;;;;;;;;;;;;;;4971638;28;19922;-60
2022/06/25 08:05:25;;;;;;;;;;;;;;;;;;4970375;28;19953;-60
2022/06/25 08:07:50;;;;;;;;;;;;;;;;;;4947437;28;19928;-61
2022/06/25 08:10:15;;;;;;;;;;;;;;;;;;4975169;28;19929;-59
2022/06/25 08:12:41;;;;;;;;;;;;;;;;;;4969182;28;20443;-60
2022/06/25 08:15:06;;;;;;;;;;;;;;;;;;4971406;28;19961;-59
2022/06/25 08:17:34;;;;;;;;;;;;;;;;;;4972431;28;19921;-59
2022/06/25 08:20:02;;;;;;;;;;;;;;;;;;4972435;28;19929;-59
2022/06/25 08:22:28;;;;;;;;;;;;;;;;;;4968750;28;19961;-60
2022/06/25 08:24:53;;;;;;;;;;;;;;;;;;4972952;28;19929;-59
2022/06/25 08:27:19;;;;;;;;;;;;;;;;;;4963863;28;19922;-59
2022/06/25 08:29:49;;;;;;;;;;;;;;;;;;4964520;28;19918;-60
2022/06/25 08:32:14;;;;;;;;;;;;;;;;;;4949175;28;20037;-59
2022/06/25 08:34:40;;;;;;;;;;;;;;;;;;4973007;28;19926;-59
2022/06/25 08:37:05;;;;;;;;;;;;;;;;;;4970269;28;20044;-59
2022/06/25 08:39:31;;;;;;;;;;;;;;;;;;4970317;28;20878;-60
2022/06/25 08:41:57;;;;;;;;;;;;;;;;;;4963457;28;19922;-58
2022/06/25 08:44:22;;;;;;;;;;;;;;;;;;4967893;28;19921;-59
2022/06/25 08:46:47;;;;;;;;;;;;;;;;;;4968967;28;21968;-59
2022/06/25 08:49:12;;;;;;;;;;;;;;;;;;4964282;28;20927;-59
2022/06/25 08:51:39;;;;;;;;;;;;;;;;;;4970662;28;19926;-60
2022/06/25 08:54:07;;;;;;;;;;;;;;;;;;4972081;28;19921;-59
2022/06/25 08:56:32;;;;;;;;;;;;;;;;;;4972627;28;20309;-59
2022/06/25 08:58:57;;;;;;;;;;;;;;;;;;4968030;28;19922;-60
2022/06/25 09:01:25;;;;;;;;;;;;;;;;;;4967205;28;20020;-58
2022/06/25 09:03:51;;;;;;;;;;;;;;;;;;4963160;28;21757;-60
2022/06/25 09:06:17;;;;;;;;;;;;;;;;;;4969712;28;19948;-60
2022/06/25 09:08:43;;;;;;;;;;;;;;;;;;4967691;28;19940;-61
2022/06/25 09:11:08;;;;;;;;;;;;;;;;;;4951033;28;20429;-59
2022/06/25 09:13:33;;;;;;;;;;;;;;;;;;4967729;28;19925;-58
2022/06/25 09:15:59;;;;;;;;;;;;;;;;;;4964128;28;19965;-59
2022/06/25 09:18:25;;;;;;;;;;;;;;;;;;4959746;28;21717;-59
2022/06/25 09:20:52;;;;;;;;;;;;;;;;;;4966901;28;20839;-59
2022/06/25 09:23:18;;;;;;;;;;;;;;;;;;4974667;28;19918;-59
2022/06/25 09:25:46;;;;;;;;;;;;;;;;;;4972813;28;19921;-59
2022/06/25 09:28:12;;;;;;;;;;;;;;;;;;4962971;28;19924;-59
2022/06/25 09:30:39;;;;;;;;;;;;;;;;;;4964869;28;21169;-59
2022/06/25 09:33:07;;;;;;;;;;;;;;;;;;4967417;28;20222;-58
2022/06/25 09:35:32;;;;;;;;;;;;;;;;;;4967059;28;19986;-58
2022/06/25 09:37:57;;;;;;;;;;;;;;;;;;4950954;28;19917;-58
2022/06/25 09:40:25;;;;;;;;;;;;;;;;;;4970722;28;19956;-58
2022/06/25 09:42:51;;;;;;;;;;;;;;;;;;4965255;28;20024;-60
2022/06/25 09:45:20;;;;;;;;;;;;;;;;;;4952908;28;20798;-61
2022/06/25 09:47:48;;;;;;;;;;;;;;;;;;4967434;28;19926;-59
2022/06/25 09:50:13;;;;;;;;;;;;;;;;;;4969719;28;19924;-58
2022/06/25 09:52:42;;;;;;;;;;;;;;;;;;4969197;28;19925;-60
2022/06/25 09:55:09;;;;;;;;;;;;;;;;;;4972641;28;19926;-59
2022/06/25 09:57:34;;;;;;;;;;;;;;;;;;4975194;28;21793;-59
2022/06/25 10:00:01;;;;;;;;;;;;;;;;;;4974053;28;19922;-59
2022/06/25 10:02:27;;;;;;;;;;;;;;;;;;4971704;28;20642;-59
2022/06/25 10:04:55;;;;;;;;;;;;;;;;;;4970625;28;19917;-60
2022/06/25 10:07:59;;;;;;;;;;;;;;;;;;4974438;28;19921;-59
2022/06/25 10:10:07;;;;;;;;;;;;;;;;;;4970426;28;19921;-58
2022/06/25 10:12:35;;;;;;;;;;;;;;;;;;4971705;28;19921;-59
2022/06/25 10:15:00;;;;;;;;;;;;;;;;;;4967010;28;20249;-59
2022/06/25 10:17:30;;;;;;;;;;;;;;;;;;4966220;28;19975;-59
2022/06/25 10:19:55;;;;;;;;;;;;;;;;;;4961593;28;19957;-59
2022/06/25 10:22:21;;;;;;;;;;;;;;;;;;4969393;28;19952;-59
2022/06/25 10:24:46;;;;;;;;;;;;;;;;;;4976848;28;20045;-58
2022/06/25 10:27:14;;;;;;;;;;;;;;;;;;4971285;28;19922;-59
2022/06/25 10:29:40;;;;;;;;;;;;;;;;;;4969525;28;19937;-58
2022/06/25 10:32:05;;;;;;;;;;;;;;;;;;4965258;28;20514;-59
2022/06/25 10:34:31;;;;;;;;;;;;;;;;;;4968923;28;19921;-59
2022/06/25 10:36:58;;;;;;;;;;;;;;;;;;4970668;28;19972;-59
2022/06/25 10:39:23;;;;;;;;;;;;;;;;;;4967295;28;19969;-60
2022/06/25 10:44:35;;;;;;;;;;;;;;;;;;4967946;28;19940;-59
2022/06/25 10:47:01;;;;;;;;;;;;;;;;;;4968202;28;19945;-60
2022/06/25 10:49:30;;;;;;;;;;;;;;;;;;4969689;28;20004;-59
2022/06/25 10:51:58;;;;;;;;;;;;;;;;;;4974645;28;19922;-59
2022/06/25 10:54:24;;;;;;;;;;;;;;;;;;4971907;28;20662;-59
2022/06/25 10:56:51;;;;;;;;;;;;;;;;;;4963009;28;19917;-59
2022/06/25 10:59:19;;;;;;;;;;;;;;;;;;4968813;28;20408;-59
2022/06/25 11:01:44;;;;;;;;;;;;;;;;;;4967300;28;20009;-58
2022/06/25 11:04:12;;;;;;;;;;;;;;;;;;4970980;28;19977;-59
2022/06/25 11:06:38;;;;;;;;;;;;;;;;;;4971237;28;20638;-60
2022/06/25 11:09:04;;;;;;;;;;;;;;;;;;4966426;28;20009;-60
2022/06/25 11:11:29;;;;;;;;;;;;;;;;;;4970051;28;20591;-61
2022/06/25 11:13:56;;;;;;;;;;;;;;;;;;4953050;28;20393;-61
2022/06/25 11:16:22;;;;;;;;;;;;;;;;;;4966545;28;19929;-60
2022/06/25 11:18:49;;;;;;;;;;;;;;;;;;4965836;28;19924;-59
2022/06/25 11:21:14;;;;;;;;;;;;;;;;;;4963684;28;19948;-59
2022/06/25 11:23:40;;;;;;;;;;;;;;;;;;4968194;28;20638;-60
2022/06/25 11:28:52;;;;;;;;;;;;;;;;;;4964803;28;19972;-60
2022/06/25 11:31:19;;;;;;;;;;;;;;;;;;4970320;28;19923;-59
2022/06/25 11:33:49;;;;;;;;;;;;;;;;;;4969170;28;19926;-60
2022/06/25 11:36:14;;;;;;;;;;;;;;;;;;4970018;28;20460;-60
2022/06/25 11:38:40;;;;;;;;;;;;;;;;;;4960434;28;19917;-60
2022/06/25 11:41:08;;;;;;;;;;;;;;;;;;4966049;28;19922;-59
2022/06/25 11:43:38;;;;;;;;;;;;;;;;;;4961332;28;19937;-60
2022/06/25 11:46:07;;;;;;;;;;;;;;;;;;4960384;28;19922;-60
2022/06/25 11:48:33;;;;;;;;;;;;;;;;;;4966003;28;19967;-60
2022/06/25 11:50:58;;;;;;;;;;;;;;;;;;4971651;28;20300;-61
2022/06/25 11:53:24;;;;;;;;;;;;;;;;;;4972219;28;19930;-60
2022/06/25 11:55:49;;;;;;;;;;;;;;;;;;4962022;28;19925;-60
2022/06/25 11:58:15;;;;;;;;;;;;;;;;;;4972093;28;19922;-60
2022/06/25 12:00:43;;;;;;;;;;;;;;;;;;4963012;28;19944;-60
2022/06/25 12:03:08;;;;;;;;;;;;;;;;;;4966586;28;20791;-59
2022/06/25 12:05:35;;;;;;;;;;;;;;;;;;4972506;28;20422;-60
2022/06/25 12:08:02;;;;;;;;;;;;;;;;;;4965754;28;20409;-60
2022/06/25 12:10:28;;;;;;;;;;;;;;;;;;4952225;28;19925;-60
2022/06/25 12:12:53;;;;;;;;;;;;;;;;;;4959822;28;19917;-61
2022/06/25 12:15:20;;;;;;;;;;;;;;;;;;4962507;28;19926;-60
2022/06/25 12:17:46;;;;;;;;;;;;;;;;;;4963217;28;20017;-60
2022/06/25 12:20:15;;;;;;;;;;;;;;;;;;4962375;28;21231;-60
2022/06/25 12:22:43;;;;;;;;;;;;;;;;;;4962778;28;19922;-60
2022/06/25 12:25:08;;;;;;;;;;;;;;;;;;4972842;28;20082;-60
2022/06/25 12:27:33;;;;;;;;;;;;;;;;;;4971408;28;19922;-58
2022/06/25 12:29:58;;;;;;;;;;;;;;;;;;4969069;28;19918;-59
2022/06/25 12:32:26;;;;;;;;;;;;;;;;;;4965631;28;19922;-60
2022/06/25 12:34:54;;;;;;;;;;;;;;;;;;4965572;28;20059;-58
2022/06/25 12:37:19;;;;;;;;;;;;;;;;;;4968673;28;19922;-61
2022/06/25 12:39:48;;;;;;;;;;;;;;;;;;4965999;28;19929;-60
2022/06/25 12:42:16;;;;;;;;;;;;;;;;;;4965195;28;19926;-60
2022/06/25 12:44:49;;;;;;;;;;;;;;;;;;4963795;28;19930;-60
2022/06/25 12:47:15;;;;;;;;;;;;;;;;;;4963240;28;19933;-60
2022/06/25 12:49:41;;;;;;;;;;;;;;;;;;4968060;28;22410;-59
2022/06/25 12:52:06;;;;;;;;;;;;;;;;;;4970817;28;19928;-60
2022/06/25 12:54:33;;;;;;;;;;;;;;;;;;4969133;28;19926;-60
2022/06/25 12:56:59;;;;;;;;;;;;;;;;;;4971663;28;19967;-61
2022/06/25 12:59:26;;;;;;;;;;;;;;;;;;4965527;28;19926;-60
2022/06/25 13:01:52;;;;;;;;;;;;;;;;;;4963201;28;19925;-60
2022/06/25 13:04:19;;;;;;;;;;;;;;;;;;4966192;28;19922;-60
2022/06/25 13:06:44;;;;;;;;;;;;;;;;;;4962269;28;19932;-60
2022/06/25 13:09:10;;;;;;;;;;;;;;;;;;4965378;28;19922;-60
2022/06/25 13:11:39;;;;;;;;;;;;;;;;;;4964863;28;20424;-60
2022/06/25 13:14:09;;;;;;;;;;;;;;;;;;4966154;28;20542;-58
2022/06/25 13:16:35;;;;;;;;;;;;;;;;;;4965246;28;20484;-59
2022/06/25 13:19:00;;;;;;;;;;;;;;;;;;4966771;28;19929;-59
2022/06/25 13:21:25;;;;;;;;;;;;;;;;;;4959158;28;20040;-58
2022/06/25 13:23:50;;;;;;;;;;;;;;;;;;4946359;28;19926;-58
2022/06/25 13:26:19;;;;;;;;;;;;;;;;;;4950822;28;19971;-59
2022/06/25 13:28:49;;;;;;;;;;;;;;;;;;4964533;28;19940;-59
2022/06/25 13:31:14;;;;;;;;;;;;;;;;;;4962624;28;21777;-59
2022/06/25 13:33:39;;;;;;;;;;;;;;;;;;4965631;28;19925;-59
2022/06/25 13:36:07;;;;;;;;;;;;;;;;;;4966571;28;19922;-59
2022/06/25 13:38:36;;;;;;;;;;;;;;;;;;4972261;28;19917;-59
2022/06/25 13:41:03;;;;;;;;;;;;;;;;;;4966628;28;20032;-58
2022/06/25 13:43:31;;;;;;;;;;;;;;;;;;4969859;28;19930;-59
2022/06/25 13:45:57;;;;;;;;;;;;;;;;;;4986439;28;19984;-59
2022/06/25 13:48:22;;;;;;;;;;;;;;;;;;4963367;28;19972;-59
2022/06/25 13:50:50;;;;;;;;;;;;;;;;;;4939962;28;19922;-59
2022/06/25 13:53:15;;;;;;;;;;;;;;;;;;4970943;28;19917;-60
2022/06/25 13:55:40;;;;;;;;;;;;;;;;;;4976898;28;19918;-59
2022/06/25 13:58:05;;;;;;;;;;;;;;;;;;4973955;28;19941;-58
2022/06/25 14:00:33;;;;;;;;;;;;;;;;;;4968629;28;20533;-59
2022/06/25 14:02:59;;;;;;;;;;;;;;;;;;4967205;28;19928;-58
2022/06/25 14:05:26;;;;;;;;;;;;;;;;;;4972553;28;19918;-59
2022/06/25 14:07:54;;;;;;;;;;;;;;;;;;4970815;28;20000;-59
2022/06/25 14:10:19;;;;;;;;;;;;;;;;;;4959410;28;22413;-59
2022/06/25 14:12:44;;;;;;;;;;;;;;;;;;4971024;28;20946;-59
2022/06/25 14:15:10;;;;;;;;;;;;;;;;;;4971676;28;19932;-59
2022/06/25 14:17:35;;;;;;;;;;;;;;;;;;4970300;28;20389;-59
2022/06/25 14:20:02;;;;;;;;;;;;;;;;;;4971001;28;20421;-58
2022/06/25 14:22:30;;;;;;;;;;;;;;;;;;4967034;28;20570;-59
2022/06/25 14:27:40;;;;;;;;;;;;;;;;;;4976102;28;19944;-59
2022/06/25 14:30:07;;;;;;;;;;;;;;;;;;4975316;28;20385;-58
2022/06/25 14:32:37;;;;;;;;;;;;;;;;;;4968373;28;19922;-59
2022/06/25 14:35:03;;;;;;;;;;;;;;;;;;4969266;28;19926;-59
2022/06/25 14:42:57;;;;;;;;;;;;;;;;;;4963787;28;19930;-58
2022/06/25 14:45:22;;;;;;;;;;;;;;;;;;4969490;28;19929;-59
2022/06/25 14:47:48;;;;;;;;;;;;;;;;;;4973090;28;19925;-57
2022/06/25 14:50:15;;;;;;;;;;;;;;;;;;4971253;28;19921;-58
2022/06/25 14:52:41;;;;;;;;;;;;;;;;;;4965323;28;20285;-59
2022/06/25 14:55:06;;;;;;;;;;;;;;;;;;4969494;28;19937;-58
2022/06/25 14:57:32;;;;;;;;;;;;;;;;;;4970567;28;19921;-60
2022/06/25 14:59:58;;;;;;;;;;;;;;;;;;4974427;28;24328;-59
2022/06/25 15:02:23;;;;;;;;;;;;;;;;;;4974920;28;19928;-59
2022/06/25 15:04:48;;;;;;;;;;;;;;;;;;4967824;28;19921;-58
2022/06/25 15:07:14;;;;;;;;;;;;;;;;;;4966533;28;19992;-58
2022/06/25 15:09:40;;;;;;;;;;;;;;;;;;4967950;28;20277;-59
2022/06/25 15:12:05;;;;;;;;;;;;;;;;;;4967493;28;20730;-58
2022/06/25 15:14:32;;;;;;;;;;;;;;;;;;4961575;28;19965;-58
2022/06/25 15:16:58;;;;;;;;;;;;;;;;;;4971039;28;20685;-58
2022/06/25 15:19:23;;;;;;;;;;;;;;;;;;4966430;28;19973;-58
2022/06/25 15:21:49;;;;;;;;;;;;;;;;;;4964867;28;19926;-58
2022/06/25 15:24:14;;;;;;;;;;;;;;;;;;4971114;28;19922;-59
2022/06/25 15:26:40;;;;;;;;;;;;;;;;;;4969007;28;19936;-58
2022/06/25 15:29:05;;;;;;;;;;;;;;;;;;4976750;28;20332;-58
2022/06/25 15:31:31;;;;;;;;;;;;;;;;;;4974015;28;20028;-58
2022/06/25 15:33:58;;;;;;;;;;;;;;;;;;4965953;28;19921;-57
2022/06/25 15:36:25;;;;;;;;;;;;;;;;;;4964220;28;19928;-59
2022/06/25 15:38:50;;;;;;;;;;;;;;;;;;4965481;28;19922;-58
2022/06/25 15:41:18;;;;;;;;;;;;;;;;;;4962714;28;19933;-58
2022/06/25 15:43:43;;;;;;;;;;;;;;;;;;4965125;28;19930;-58
2022/06/25 15:46:09;;;;;;;;;;;;;;;;;;4972314;28;19976;-60
2022/06/25 15:48:34;;;;;;;;;;;;;;;;;;4965881;28;19975;-60
2022/06/25 15:50:59;;;;;;;;;;;;;;;;;;4970216;28;20498;-59
2022/06/25 15:53:25;;;;;;;;;;;;;;;;;;4966004;28;20614;-59
2022/06/25 15:55:53;;;;;;;;;;;;;;;;;;4967602;28;19925;-58
2022/06/25 15:58:18;;;;;;;;;;;;;;;;;;4972708;28;19917;-59
2022/06/25 16:00:44;;;;;;;;;;;;;;;;;;4972574;28;20924;-59
2022/06/25 16:03:12;;;;;;;;;;;;;;;;;;4973421;28;19992;-59
2022/06/25 16:05:38;;;;;;;;;;;;;;;;;;4968498;28;19922;-59
2022/06/25 16:08:03;;;;;;;;;;;;;;;;;;4965222;28;19921;-59
2022/06/25 16:10:33;;;;;;;;;;;;;;;;;;4963535;28;19917;-60
2022/06/25 16:13:11;;;;;;;;;;;;;;;;;;4969022;28;19918;-60
2022/06/25 16:15:36;;;;;;;;;;;;;;;;;;4969278;28;19976;-59
2022/06/25 16:18:02;;;;;;;;;;;;;;;;;;4948265;28;19939;-57
2022/06/25 16:20:29;;;;;;;;;;;;;;;;;;4967718;28;19925;-60
2022/06/25 16:22:54;;;;;;;;;;;;;;;;;;4966979;28;19922;-59
2022/06/25 16:25:19;;;;;;;;;;;;;;;;;;4967758;28;19922;-58
2022/06/25 16:27:47;;;;;;;;;;;;;;;;;;4968927;28;20700;-59
2022/06/25 16:30:18;;;;;;;;;;;;;;;;;;4971709;28;19921;-59
2022/06/25 16:32:43;;;;;;;;;;;;;;;;;;4972247;28;20020;-59
2022/06/25 16:35:08;;;;;;;;;;;;;;;;;;4967511;28;19941;-59
2022/06/25 16:37:36;;;;;;;;;;;;;;;;;;4965300;28;19921;-59
2022/06/25 16:40:01;;;;;;;;;;;;;;;;;;4960769;28;19924;-59
2022/06/25 16:42:31;;;;;;;;;;;;;;;;;;4967281;28;19956;-57
2022/06/25 16:44:59;;;;;;;;;;;;;;;;;;4950157;28;19926;-59
2022/06/25 16:47:24;;;;;;;;;;;;;;;;;;4967564;28;19921;-59
2022/06/25 16:49:52;;;;;;;;;;;;;;;;;;4968550;28;20412;-59
2022/06/25 16:52:17;;;;;;;;;;;;;;;;;;4943730;28;19924;-58
2022/06/25 16:54:42;;;;;;;;;;;;;;;;;;4966123;28;20097;-59
2022/06/25 16:57:10;;;;;;;;;;;;;;;;;;4963891;28;19917;-59
2022/06/25 16:59:39;;;;;;;;;;;;;;;;;;4972493;28;20420;-59
2022/06/25 17:02:07;;;;;;;;;;;;;;;;;;4968059;28;20008;-59
2022/06/25 17:04:35;;;;;;;;;;;;;;;;;;4969366;28;19917;-58
2022/06/25 17:07:03;;;;;;;;;;;;;;;;;;4975812;28;19921;-59
2022/06/25 17:09:31;;;;;;;;;;;;;;;;;;4972999;28;19918;-61
2022/06/25 17:11:56;;;;;;;;;;;;;;;;;;4979265;28;19914;-59
2022/06/25 17:14:24;;;;;;;;;;;;;;;;;;4975163;28;19925;-60